Flight Track Log - Related Links

Times and Time Zones

All times are in EDT time to prevent confusion due to time zone crossing. See the N379PK flight status page for this flight to view local times or setup timezone preferences in your user account.

Time Position Orientation Groundspeed Altitude Reporting Facility
EDT Latitude Longitude Course Direction KTS MPH feet Rate Location/Type
Sun 09:22:03 PM 55.1667 -118.9833 180° South 140 161 2,600  Level Edmonton Center
Sun 09:23:03 PM 55.1500 -119.0333 240° Southwest 170 196 3,900 1,550 Climbing Edmonton Center
Sun 09:24:03 PM 55.1000 -119.0167 169° South 170 196 5,700 1,800 Climbing Edmonton Center
Sun 09:25:03 PM 55.0500 -119.0000 169° South 170 196 7,500 1,750 Climbing Edmonton Center
Sun 09:26:03 PM 54.9833 -119.0000 180° South 170 196 9,200 1,650 Climbing Edmonton Center
Sun 09:27:00 PM 54.7928 -119.0167 180° South  Level FlightAware Approximate
Sun 09:27:03 PM 54.9333 -118.9833 169° South 170 196 10,800  Level Edmonton Center
Sun 09:28:03 PM 54.8833 -118.9667 169° South 180 207 12,300 1,550 Climbing Edmonton Center
Sun 09:29:03 PM 54.8500 -118.9500 164° South 180 207 13,900 1,550 Climbing Edmonton Center
Sun 09:30:03 PM 54.7833 -118.9667 188° South 180 207 15,400 1,350 Climbing Edmonton Center
Sun 09:31:03 PM 54.7333 -118.9500 169° South 180 207 16,600 1,050 Climbing Edmonton Center
Sun 09:32:03 PM 54.6833 -118.9333 169° South 200 230 17,500 1,000 Climbing Edmonton Center
Sun 09:33:03 PM 54.6333 -118.9167 169° South 200 230 18,600 1,050 Climbing Edmonton Center
Sun 09:34:03 PM 54.5667 -118.9167 180° South 210 242 19,600 950 Climbing Edmonton Center
Sun 09:35:03 PM 54.5167 -118.9000 169° South 210 242 20,500 950 Climbing Edmonton Center
Sun 09:36:03 PM 54.4500 -118.8667 164° South 200 230 21,500 900 Climbing Edmonton Center
Sun 09:37:03 PM 54.4000 -118.8500 169° South 210 242 22,300 800 Climbing Edmonton Center
Sun 09:38:03 PM 54.3333 -118.8667 188° South 210 242 23,100 800 Climbing Edmonton Center
Sun 09:39:03 PM 54.2833 -118.8500 169° South 210 242 23,900 700 Climbing Edmonton Center
Sun 09:40:03 PM 54.2167 -118.8167 164° South 210 242 24,500 550 Climbing Edmonton Center
Sun 09:41:03 PM 54.1667 -118.8000 169° South 220 253 25,000 250 Climbing Edmonton Center
Sun 09:42:03 PM 54.1000 -118.8000 180° South 230 265 25,000  Level Edmonton Center
Sun 09:43:03 PM 54.0333 -118.7833 172° South 240 276 25,000  Level Edmonton Center
Sun 09:44:03 PM 53.9500 -118.7500 167° South 250 288 25,000  Level Edmonton Center
Sun 09:45:03 PM 53.8833 -118.7667 188° South 250 288 25,000  Level Edmonton Center
Sun 09:46:03 PM 53.8167 -118.7333 164° South 260 299 25,000  Level Edmonton Center
Sun 09:47:03 PM 53.7500 -118.7167 172° South 260 299 25,000  Level Edmonton Center
Sun 09:48:03 PM 53.6833 -118.6833 164° South 260 299 25,000  Level Edmonton Center
Sun 09:49:03 PM 53.6000 -118.6833 180° South 260 299 25,000  Level Edmonton Center
Sun 09:50:03 PM 53.5333 -118.6667 172° South 260 299 25,000  Level Edmonton Center
Sun 09:51:03 PM 53.4667 -118.6667 180° South 260 299 25,000  Level Edmonton Center
Sun 09:52:03 PM 53.4000 -118.6500 172° South 260 299 25,000  Level Edmonton Center
Sun 09:52:45 PM 53.3500 -118.5667 135° Southeast 260 299 25,000  Level Vancouver Center
Sun 09:53:45 PM 53.2833 -118.5500 171° South 260 299 25,000  Level Vancouver Center
Sun 09:54:45 PM 53.2167 -118.5500 180° South 260 299 25,000  Level Vancouver Center
Sun 09:55:45 PM 53.1500 -118.5333 171° South 260 299 25,000  Level Vancouver Center
Sun 09:56:45 PM 53.0667 -118.5167 173° South 260 299 25,000  Level Vancouver Center
Sun 09:57:45 PM 53.0000 -118.5000 171° South 260 299 25,000  Level Vancouver Center
Sun 09:58:45 PM 52.9333 -118.5000 180° South 260 299 25,000  Level Vancouver Center
Sun 09:59:45 PM 52.8667 -118.4833 171° South 260 299 25,000  Level Vancouver Center
Sun 10:00:45 PM 52.7667 -118.4667 174° South 260 299 25,000  Level Vancouver Center
Sun 10:01:45 PM 52.7000 -118.4500 171° South 260 299 25,000 -50 Level Vancouver Center
Sun 10:02:45 PM 52.6333 -118.4333 171° South 260 299 24,900 -50 Descending Vancouver Center
Sun 10:03:45 PM 52.5500 -118.4333 180° South 260 299 24,900  Level Vancouver Center
Sun 10:05:03 PM 52.4333 -118.4667 190° South 260 299 24,900  Level Edmonton Center
Sun 10:06:03 PM 52.3833 -118.4500 168° South 260 299 24,900  Level Edmonton Center
Sun 10:07:03 PM 52.3000 -118.4667 187° South 260 299 24,900  Level Edmonton Center
Sun 10:08:03 PM 52.2167 -118.4333 166° South 260 299 24,900  Level Edmonton Center
Sun 10:09:03 PM 52.1500 -118.4167 171° South 260 299 24,900  Level Edmonton Center
Sun 10:10:03 PM 52.0833 -118.4167 180° South 270 311 24,900  Level Edmonton Center
Sun 10:10:45 PM 52.0500 -118.3333 123° Southeast 270 311 24,900  Level Vancouver Center
Sun 10:11:45 PM 51.9833 -118.3167 171° South 270 311 24,900  Level Vancouver Center
Sun 10:12:45 PM 51.9000 -118.3000 173° South 270 311 24,900  Level Vancouver Center
Sun 10:13:45 PM 51.8333 -118.2833 171° South 270 311 24,900  Level Vancouver Center
Sun 10:14:45 PM 51.7500 -118.3000 187° South 270 311 24,900  Level Vancouver Center
Sun 10:15:45 PM 51.6833 -118.2667 163° South 270 311 24,900  Level Vancouver Center
Sun 10:16:45 PM 51.6000 -118.2500 173° South 270 311 24,900  Level Vancouver Center
Sun 10:17:45 PM 51.5333 -118.2333 171° South 270 311 24,900  Level Vancouver Center
Sun 10:18:45 PM 51.4500 -118.2167 173° South 270 311 24,900  Level Vancouver Center
Sun 10:19:45 PM 51.3667 -118.2000 173° South 270 311 24,900  Level Vancouver Center
Sun 10:20:45 PM 51.2833 -118.2167 187° South 270 311 24,900  Level Vancouver Center
Sun 10:21:45 PM 51.2167 -118.2000 171° South 280 322 24,900  Level Vancouver Center
Sun 10:22:45 PM 51.1333 -118.1833 173° South 280 322 24,900  Level Vancouver Center
Sun 10:23:45 PM 51.0667 -118.1667 171° South 270 311 24,900  Level Vancouver Center
Sun 10:24:45 PM 50.9833 -118.1500 173° South 270 311 24,900  Level Vancouver Center
Sun 10:25:45 PM 50.9167 -118.1333 171° South 270 311 24,900  Level Vancouver Center
Sun 10:26:45 PM 50.8333 -118.1333 180° South 270 311 24,900  Level Vancouver Center
Sun 10:27:45 PM 50.7667 -118.1167 171° South 270 311 24,900  Level Vancouver Center
Sun 10:28:45 PM 50.6833 -118.1000 173° South 280 322 24,900  Level Vancouver Center
Sun 10:29:45 PM 50.6167 -118.0833 171° South 280 322 24,900  Level Vancouver Center
Sun 10:30:45 PM 50.5333 -118.0667 173° South 280 322 24,900  Level Vancouver Center
Sun 10:31:45 PM 50.4667 -118.0500 171° South 280 322 24,900  Level Vancouver Center
Sun 10:32:45 PM 50.3833 -118.0333 173° South 280 322 24,900  Level Vancouver Center
Sun 10:33:45 PM 50.3000 -118.0500 187° South 280 322 24,900  Level Vancouver Center
Sun 10:34:45 PM 50.2333 -118.0333 171° South 280 322 24,900  Level Vancouver Center
Sun 10:35:45 PM 50.1500 -118.0167 173° South 280 322 24,900  Level Vancouver Center
Sun 10:36:45 PM 50.0833 -118.0000 171° South 280 322 24,900  Level Vancouver Center
Sun 10:37:45 PM 50.0000 -117.9833 173° South 280 322 24,900  Level Vancouver Center
Sun 10:38:45 PM 49.9167 -117.9667 173° South 280 322 24,900  Level Vancouver Center
Sun 10:39:45 PM 49.8333 -117.9667 180° South 280 322 24,900  Level Vancouver Center
Sun 10:40:45 PM 49.7667 -117.9500 171° South 270 311 24,900  Level Vancouver Center
Sun 10:41:45 PM 49.6833 -117.9333 173° South 280 322 24,900  Level Vancouver Center
Sun 10:42:45 PM 49.6167 -117.9167 171° South 270 311 24,900  Level Vancouver Center
Sun 10:43:45 PM 49.5333 -117.9000 173° South 270 311 24,900  Level Vancouver Center
Sun 10:44:45 PM 49.4667 -117.8833 171° South 270 311 24,900  Level Vancouver Center
Sun 10:45:45 PM 49.3833 -117.9000 187° South 270 311 24,900  Level Vancouver Center
Sun 10:46:45 PM 49.3167 -117.8833 171° South 270 311 24,900  Level Vancouver Center
Sun 10:47:45 PM 49.2333 -117.8667 173° South 270 311 24,900  Level Vancouver Center
Sun 10:48:45 PM 49.1667 -117.8500 171° South 270 311 24,900  Level Vancouver Center
Sun 10:49:45 PM 49.1000 -117.8333 171° South 270 311 24,900  Level Vancouver Center
Sun 10:50:45 PM 49.0167 -117.8333 180° South 270 311 24,900  Level Vancouver Center
Sun 10:51:45 PM 48.9500 -117.8167 171° South 270 311 24,900 -250 Level Vancouver Center
Sun 10:52:45 PM 48.8667 -117.8000 173° South 270 311 24,400 -457 Descending Vancouver Center
Sun 10:53:30 PM 48.8306 -117.8178 198° South 275 316 24,100 -396 Descending Seattle Center
Sun 10:54:31 PM 48.7525 -117.8056 174° South 281 323 23,700 -885 Descending Seattle Center
Sun 10:55:32 PM 48.6714 -117.7933 174° South 285 328 22,300 -1,279 Descending Seattle Center
Sun 10:56:33 PM 48.5850 -117.7786 174° South 306 352 21,100 -1,328 Descending Seattle Center
Sun 10:57:34 PM 48.4997 -117.7672 175° South 307 353 19,600 -1,377 Descending Seattle Center
Sun 10:58:35 PM 48.4144 -117.7553 175° South 307 353 18,300 -1,328 Descending Seattle Center
Sun 10:59:36 PM 48.3189 -117.7411 174° South 307 353 16,900 -1,328 Descending Seattle Center
Sun 11:00:37 PM 48.2342 -117.7086 166° South 298 343 15,600 -1,328 Descending Seattle Center
Sun 11:01:38 PM 48.1586 -117.6708 162° South 288 331 14,200 -1,525 Descending Seattle Center
Sun 11:02:39 PM 48.0844 -117.6328 161° South 288 331 12,500 -1,672 Descending Seattle Center
Sun 11:03:40 PM 48.0094 -117.5958 162° South 285 328 10,800 -1,672 Descending Seattle Center
Sun 11:04:41 PM 47.9389 -117.5603 161° South 273 314 9,100 -1,770 Descending Seattle Center
Sun 11:05:42 PM 47.8622 -117.5225 162° South 272 313 7,200 -1,377 Descending Seattle Center
Sun 11:06:43 PM 47.7956 -117.4900 162° South 257 296 6,300 -1,328 Descending Seattle Center
Sun 11:07:44 PM 47.7303 -117.4578 162° South 251 289 4,500 -1,279 Descending Seattle Center
Sun 11:08:45 PM 47.6733 -117.4539 177° South 218 251 3,700 -836 Descending Seattle Center
Sun 11:09:46 PM 47.6436 -117.5003 226° Southwest 156 180 2,800 -694 Descending Seattle Center
Sun 11:10:46 PM 47.6261 -117.5258 225° Southwest 109 125 2,300 -248 Descending Seattle Center
Sun 11:11:47 PM 47.6186 -117.5394 231° Southwest 56 64 2,300  Level Seattle Center

Login

Don't have an account? Register now (free) for customized features, flight alerts, and more!